createdAt,value
2018-10-03T00:00:49.768Z,12.00
2018-10-03T00:05:47.316Z,11.90
2018-10-03T00:08:16.240Z,12.00
2018-10-03T00:10:45.111Z,11.90
2018-10-03T00:13:13.990Z,11.90
2018-10-03T00:18:11.488Z,12.00
2018-10-03T00:20:40.371Z,12.00
2018-10-03T00:25:37.790Z,12.00
2018-10-03T00:28:06.666Z,12.00
2018-10-03T00:30:35.641Z,12.10
2018-10-03T00:33:04.522Z,12.00
2018-10-03T00:35:33.398Z,12.10
2018-10-03T00:40:30.854Z,12.10
2018-10-03T00:42:59.759Z,12.10
2018-10-03T00:45:28.645Z,12.10
2018-10-03T00:47:57.564Z,12.10
2018-10-03T00:50:26.419Z,12.20
2018-10-03T00:55:23.889Z,12.20
2018-10-03T00:57:52.773Z,12.20
2018-10-03T01:05:18.857Z,12.20
2018-10-03T01:07:47.757Z,12.20
2018-10-03T01:10:16.666Z,12.10
2018-10-03T01:12:45.591Z,12.20
2018-10-03T01:15:14.443Z,12.20
2018-10-03T01:17:43.322Z,12.20
2018-10-03T01:22:40.765Z,12.20
2018-10-03T01:25:09.677Z,12.20
2018-10-03T01:27:38.550Z,12.20
2018-10-03T01:32:35.953Z,12.20
2018-10-03T01:35:04.806Z,12.20
2018-10-03T01:42:30.866Z,12.10
2018-10-03T01:44:59.789Z,12.10
2018-10-03T01:47:28.681Z,12.10
2018-10-03T01:52:26.122Z,12.20
2018-10-03T01:54:54.978Z,12.20
2018-10-03T01:57:23.838Z,12.20
2018-10-03T02:04:49.751Z,12.10
2018-10-03T02:14:44.324Z,12.10
2018-10-03T02:17:13.148Z,12.10
2018-10-03T02:19:41.995Z,12.10
2018-10-03T02:22:10.858Z,12.10
2018-10-03T02:24:39.719Z,12.00
2018-10-03T02:27:08.578Z,11.90
2018-10-03T02:32:06.018Z,11.90
2018-10-03T02:39:31.975Z,11.80
2018-10-03T02:42:00.840Z,11.80
2018-10-03T02:46:58.251Z,11.80
2018-10-03T02:49:27.120Z,11.80
2018-10-03T02:51:56.024Z,11.90
2018-10-03T02:54:24.926Z,11.90
2018-10-03T02:56:53.809Z,11.90
2018-10-03T02:59:22.662Z,11.90
2018-10-03T03:01:51.996Z,11.90
2018-10-03T03:04:20.975Z,12.00
2018-10-03T03:06:49.830Z,11.90
2018-10-03T03:11:47.866Z,11.90
2018-10-03T03:14:16.724Z,11.90
2018-10-03T03:19:14.118Z,12.00
2018-10-03T03:21:42.980Z,11.90
2018-10-03T03:24:11.879Z,11.90
2018-10-03T03:26:40.771Z,11.90
2018-10-03T03:29:09.687Z,11.80
2018-10-03T03:31:38.507Z,11.80
2018-10-03T03:34:07.377Z,11.80
2018-10-03T03:36:36.285Z,11.70
2018-10-03T03:39:06.544Z,11.70
2018-10-03T03:41:35.400Z,11.70
2018-10-03T03:44:04.291Z,11.60
2018-10-03T03:46:33.162Z,11.60
2018-10-03T03:49:02.021Z,11.60
2018-10-03T03:51:30.874Z,11.60
2018-10-03T03:56:28.526Z,11.70
2018-10-03T04:01:25.928Z,11.70
2018-10-03T04:03:54.782Z,11.80
2018-10-03T04:06:23.829Z,11.80
2018-10-03T04:11:21.203Z,11.90
2018-10-03T04:13:50.083Z,11.90
2018-10-03T04:16:18.943Z,11.90
2018-10-03T04:18:47.815Z,11.90
2018-10-03T04:21:16.672Z,11.90
2018-10-03T04:26:14.062Z,11.90
2018-10-03T04:31:11.474Z,11.90
2018-10-03T04:33:40.350Z,11.90
2018-10-03T04:36:09.255Z,11.90
2018-10-03T04:38:38.138Z,11.90
2018-10-03T04:41:07.033Z,11.90
2018-10-03T04:43:35.914Z,11.90
2018-10-03T04:46:04.805Z,11.80
2018-10-03T04:53:30.708Z,11.70
2018-10-03T04:55:59.586Z,11.70
2018-10-03T04:58:28.466Z,11.50
2018-10-03T05:03:26.305Z,11.50
2018-10-03T05:05:55.229Z,11.50
2018-10-03T05:08:24.111Z,11.50
2018-10-03T05:13:21.596Z,11.40
2018-10-03T05:15:50.554Z,11.40
2018-10-03T05:18:19.469Z,11.40
2018-10-03T05:20:48.350Z,11.30
2018-10-03T05:23:17.246Z,11.30
2018-10-03T05:25:46.176Z,11.30
2018-10-03T05:28:15.089Z,11.20
2018-10-03T05:30:43.926Z,11.30
2018-10-03T05:35:41.332Z,11.30
2018-10-03T05:38:10.249Z,11.30
2018-10-03T05:40:39.223Z,11.40
2018-10-03T05:45:36.631Z,11.40
2018-10-03T05:48:05.714Z,11.50
2018-10-03T05:50:34.625Z,11.50
2018-10-03T05:55:32.013Z,11.50
2018-10-03T06:05:26.496Z,11.60
2018-10-03T06:07:55.357Z,11.70
2018-10-03T06:10:24.224Z,11.60
2018-10-03T06:17:50.159Z,11.70
2018-10-03T06:20:19.027Z,11.70
2018-10-03T06:25:16.444Z,11.60
2018-10-03T06:30:14.335Z,11.70
2018-10-03T06:35:11.785Z,11.60
2018-10-03T06:37:40.651Z,11.60
2018-10-03T06:40:09.817Z,11.60
2018-10-03T06:42:39.065Z,11.70
2018-10-03T06:50:05.494Z,11.60
2018-10-03T06:52:34.369Z,11.70
2018-10-03T06:57:31.815Z,11.70
2018-10-03T07:00:00.687Z,11.70
2018-10-03T07:02:29.566Z,11.80
2018-10-03T07:07:26.987Z,11.70
2018-10-03T07:09:55.875Z,11.80
2018-10-03T07:14:53.310Z,11.90
2018-10-03T07:17:22.230Z,11.90
2018-10-03T07:19:51.348Z,12.00
2018-10-03T07:22:20.202Z,11.90
2018-10-03T07:27:17.566Z,12.10
2018-10-03T07:29:46.449Z,12.10
2018-10-03T07:32:15.349Z,12.30
2018-10-03T07:34:44.244Z,12.40
2018-10-03T07:37:13.143Z,12.40
2018-10-03T07:39:42.056Z,12.50
2018-10-03T07:42:10.954Z,12.60
2018-10-03T07:44:39.830Z,12.60
2018-10-03T07:47:08.706Z,12.70
2018-10-03T07:49:37.587Z,12.70
2018-10-03T07:52:06.813Z,12.80
2018-10-03T07:54:36.401Z,12.90
2018-10-03T07:57:05.308Z,12.90
2018-10-03T07:59:34.175Z,13.00
2018-10-03T08:02:03.067Z,13.00
2018-10-03T08:04:31.934Z,13.10
2018-10-03T08:07:00.807Z,13.20
2018-10-03T08:09:29.738Z,13.30
2018-10-03T08:11:58.602Z,13.40
2018-10-03T08:14:27.537Z,13.40
2018-10-03T08:16:56.406Z,13.40
2018-10-03T08:19:25.282Z,13.40
2018-10-03T08:21:54.208Z,13.40
2018-10-03T08:24:23.127Z,13.30
2018-10-03T08:26:52.078Z,13.30
2018-10-03T08:31:49.578Z,13.40
2018-10-03T08:36:47.063Z,13.40
2018-10-03T08:39:15.930Z,13.50
2018-10-03T08:41:44.843Z,13.40
2018-10-03T08:46:42.348Z,13.60
2018-10-03T08:49:11.241Z,13.60
2018-10-03T08:51:40.207Z,13.80
2018-10-03T08:54:09.035Z,13.80
2018-10-03T08:56:37.906Z,13.90
2018-10-03T08:59:06.805Z,14.00
2018-10-03T09:01:35.738Z,13.90
2018-10-03T09:04:04.594Z,13.90
2018-10-03T09:06:33.625Z,13.90
2018-10-03T09:09:02.629Z,13.90
2018-10-03T09:11:31.545Z,13.90
2018-10-03T09:14:00.419Z,14.00
2018-10-03T09:16:29.338Z,14.00
2018-10-03T09:18:59.200Z,13.90
2018-10-03T09:24:14.691Z,13.90
2018-10-03T09:26:43.587Z,13.90
2018-10-03T09:29:12.479Z,13.90
2018-10-03T09:31:41.422Z,14.00
2018-10-03T09:34:10.342Z,14.10
2018-10-03T09:36:39.237Z,14.10
2018-10-03T09:39:09.798Z,14.10
2018-10-03T09:41:38.695Z,14.20
2018-10-03T09:44:08.106Z,14.20
2018-10-03T09:46:37.091Z,14.30
2018-10-03T09:49:06.107Z,14.40
2018-10-03T09:51:34.982Z,14.50
2018-10-03T09:54:04.182Z,14.60
2018-10-03T09:56:33.063Z,14.70
2018-10-03T09:59:01.963Z,14.80
2018-10-03T10:04:01.948Z,14.80
2018-10-03T10:06:31.910Z,14.90
2018-10-03T10:09:01.089Z,14.90
2018-10-03T10:11:30.129Z,15.00
2018-10-03T10:13:58.899Z,14.90
2018-10-03T10:16:27.854Z,14.90
2018-10-03T10:18:56.695Z,14.80
2018-10-03T10:21:25.627Z,14.80
2018-10-03T10:23:54.542Z,14.90
2018-10-03T10:26:23.435Z,14.80
2018-10-03T10:31:20.854Z,14.90
2018-10-03T10:33:49.774Z,14.90
2018-10-03T10:36:18.649Z,14.80
2018-10-03T10:38:47.651Z,14.90
2018-10-03T10:41:16.747Z,15.00
2018-10-03T10:43:45.444Z,15.00
2018-10-03T10:46:14.354Z,15.00
2018-10-03T10:48:43.235Z,15.10
2018-10-03T10:51:12.142Z,15.30
2018-10-03T10:53:41.042Z,15.20
2018-10-03T10:56:09.959Z,15.50
2018-10-03T10:58:38.897Z,15.60
2018-10-03T11:01:07.800Z,15.70
2018-10-03T11:03:36.670Z,15.80
2018-10-03T11:06:05.640Z,15.80
2018-10-03T11:08:34.507Z,15.70
2018-10-03T11:11:03.395Z,15.70
2018-10-03T11:13:32.267Z,15.60
2018-10-03T11:16:01.178Z,15.60
2018-10-03T11:18:30.058Z,15.40
2018-10-03T11:23:27.607Z,15.30
2018-10-03T11:25:56.868Z,15.10
2018-10-03T11:28:25.783Z,15.10
2018-10-03T11:30:54.663Z,15.00
2018-10-03T11:33:23.559Z,15.10
2018-10-03T11:35:52.447Z,15.30
2018-10-03T11:38:21.398Z,15.30
2018-10-03T11:40:50.265Z,15.30
2018-10-03T11:43:19.169Z,15.40
2018-10-03T11:45:48.067Z,15.40
2018-10-03T11:48:16.955Z,15.50
2018-10-03T11:50:45.936Z,15.60
2018-10-03T11:53:14.806Z,15.70
2018-10-03T11:55:43.675Z,15.90
2018-10-03T11:58:12.579Z,15.90
2018-10-03T12:00:41.490Z,15.80
2018-10-03T12:03:10.479Z,15.80
2018-10-03T12:05:39.271Z,15.90
2018-10-03T12:08:08.154Z,15.90
2018-10-03T12:10:37.045Z,16.00
2018-10-03T12:13:06.110Z,16.00
2018-10-03T12:15:35.059Z,16.00
2018-10-03T12:18:03.953Z,16.00
2018-10-03T12:20:32.881Z,16.00
2018-10-03T12:23:01.827Z,16.00
2018-10-03T12:25:30.716Z,15.90
2018-10-03T12:27:59.611Z,16.00
2018-10-03T12:30:28.501Z,15.90
2018-10-03T12:35:31.494Z,15.90
2018-10-03T12:38:00.611Z,15.80
2018-10-03T12:40:29.863Z,15.80
2018-10-03T12:42:58.805Z,15.90
2018-10-03T12:45:28.376Z,15.80
2018-10-03T12:47:57.741Z,15.80
2018-10-03T12:50:27.105Z,15.80
2018-10-03T12:55:24.530Z,16.10
2018-10-03T13:00:25.178Z,16.00
2018-10-03T13:05:23.158Z,15.80
2018-10-03T13:15:17.705Z,15.70
2018-10-03T13:17:46.602Z,15.70
2018-10-03T13:20:15.491Z,15.50
2018-10-03T13:25:13.530Z,15.60
2018-10-03T13:30:10.957Z,15.70
2018-10-03T13:35:08.430Z,16.10
2018-10-03T13:37:37.323Z,16.40
2018-10-03T13:40:06.206Z,16.40
2018-10-03T13:42:35.111Z,16.50
2018-10-03T13:45:03.991Z,16.50
2018-10-03T13:47:32.894Z,16.50
2018-10-03T13:50:01.751Z,16.50
2018-10-03T13:52:30.654Z,16.40
2018-10-03T13:59:56.625Z,16.60
2018-10-03T14:02:25.515Z,16.50
2018-10-03T14:07:22.931Z,16.50
2018-10-03T14:12:20.348Z,16.30
2018-10-03T14:17:17.782Z,16.00
2018-10-03T14:19:46.668Z,15.90
2018-10-03T14:22:16.454Z,15.80
2018-10-03T14:24:45.379Z,15.80
2018-10-03T14:29:42.758Z,15.80
2018-10-03T14:32:11.626Z,15.80
2018-10-03T14:34:40.574Z,15.80
2018-10-03T14:39:38.502Z,15.80
2018-10-03T14:44:35.915Z,15.70
2018-10-03T14:47:04.814Z,15.70
2018-10-03T14:52:02.296Z,15.70
2018-10-03T15:06:53.815Z,15.40
2018-10-03T15:09:22.738Z,15.40
2018-10-03T15:11:51.640Z,15.40
2018-10-03T15:19:17.657Z,15.30
2018-10-03T15:21:46.555Z,15.30
2018-10-03T15:24:15.509Z,15.30
2018-10-03T15:31:41.530Z,15.30
2018-10-03T15:34:10.406Z,15.30
2018-10-03T15:41:36.731Z,15.30
2018-10-03T15:44:05.686Z,15.30
2018-10-03T15:49:03.118Z,15.30
2018-10-03T15:51:32.028Z,15.30
2018-10-03T16:01:26.498Z,15.20
2018-10-03T16:08:52.475Z,15.10
2018-10-03T16:11:21.383Z,15.10
2018-10-03T16:16:18.808Z,15.10
2018-10-03T16:18:47.691Z,15.10
2018-10-03T16:21:16.562Z,15.10
2018-10-03T16:23:45.442Z,15.00
2018-10-03T16:28:42.922Z,15.10
2018-10-03T16:31:11.814Z,15.00
2018-10-03T16:38:37.924Z,15.10
2018-10-03T16:43:35.322Z,14.90
2018-10-03T16:46:04.218Z,15.00
2018-10-03T16:48:33.154Z,15.00
2018-10-03T16:51:02.051Z,14.90
2018-10-03T17:00:57.347Z,14.90
2018-10-03T17:03:26.195Z,14.80
2018-10-03T17:08:23.654Z,14.60
2018-10-03T17:10:52.551Z,14.70
2018-10-03T17:13:21.452Z,14.60
2018-10-03T17:15:50.454Z,14.50
2018-10-03T17:20:47.881Z,14.30
2018-10-03T17:25:45.331Z,14.20
2018-10-03T17:30:42.793Z,14.10
2018-10-03T17:33:11.692Z,13.90
2018-10-03T17:38:09.183Z,13.80
2018-10-03T17:43:06.612Z,13.70
2018-10-03T17:50:32.554Z,13.60
2018-10-03T18:00:27.175Z,13.40
2018-10-03T18:05:24.609Z,13.30
2018-10-03T18:07:53.499Z,13.20
2018-10-03T18:12:50.928Z,13.10
2018-10-03T18:17:48.411Z,13.00
2018-10-03T18:20:17.459Z,13.00
2018-10-03T18:30:11.965Z,12.70
2018-10-03T18:35:09.386Z,12.90
2018-10-03T18:37:38.427Z,12.80
2018-10-03T18:42:35.860Z,12.70
2018-10-03T18:45:04.796Z,12.60
2018-10-03T18:47:33.698Z,12.50
2018-10-03T18:50:02.599Z,12.50
2018-10-03T18:59:57.130Z,12.50
2018-10-03T19:02:26.010Z,12.50
2018-10-03T19:09:51.967Z,12.40
2018-10-03T19:12:20.920Z,12.30
2018-10-03T19:14:49.715Z,12.40
2018-10-03T19:17:18.615Z,12.40
2018-10-03T19:19:47.482Z,12.30
2018-10-03T19:29:42.049Z,12.20
2018-10-03T19:37:07.996Z,12.10
2018-10-03T19:47:02.451Z,12.00
2018-10-03T19:56:57.165Z,11.90
2018-10-03T19:59:26.214Z,11.80
2018-10-03T20:04:23.618Z,11.70
2018-10-03T20:09:21.022Z,11.70
2018-10-03T20:11:49.918Z,11.60
2018-10-03T20:14:18.871Z,11.60
2018-10-03T20:16:48.378Z,11.50
2018-10-03T20:19:17.286Z,11.50
2018-10-03T20:34:08.868Z,11.30
2018-10-03T20:36:37.742Z,11.30
2018-10-03T20:39:07.545Z,11.20
2018-10-03T20:49:02.905Z,11.10
2018-10-03T20:51:31.794Z,11.10
2018-10-03T20:56:29.225Z,11.10
2018-10-03T20:58:58.126Z,11.10
2018-10-03T21:01:27.082Z,11.10
2018-10-03T21:03:55.979Z,11.20
2018-10-03T21:06:24.869Z,11.10
2018-10-03T21:08:53.750Z,11.10
2018-10-03T21:11:22.715Z,11.10
2018-10-03T21:13:51.593Z,11.10
2018-10-03T21:18:49.154Z,11.10
2018-10-03T21:31:12.194Z,11.20
2018-10-03T21:33:41.255Z,11.10
2018-10-03T21:48:32.990Z,11.00
2018-10-03T21:51:01.885Z,11.00
2018-10-03T21:55:59.567Z,11.00
2018-10-03T22:00:57.003Z,10.90
2018-10-03T22:08:23.041Z,10.80
2018-10-03T22:13:20.459Z,10.70
2018-10-03T22:18:17.887Z,10.60
2018-10-03T22:20:46.774Z,10.60
2018-10-03T22:25:44.207Z,10.60
2018-10-03T22:28:13.106Z,10.60
2018-10-03T22:30:41.986Z,10.60
2018-10-03T22:35:39.412Z,10.60
2018-10-03T22:38:08.290Z,10.60
2018-10-03T22:48:02.842Z,10.60
2018-10-03T23:02:54.338Z,10.50
2018-10-03T23:05:23.231Z,10.40
2018-10-03T23:07:52.127Z,10.40
2018-10-03T23:15:18.062Z,10.40
2018-10-03T23:17:46.982Z,10.30
2018-10-03T23:25:12.939Z,10.30
2018-10-03T23:27:41.810Z,10.30
2018-10-03T23:32:39.262Z,10.30
2018-10-03T23:35:08.139Z,10.30
2018-10-03T23:40:05.569Z,10.30
2018-10-03T23:45:03.130Z,10.40
2018-10-03T23:47:32.013Z,10.40
2018-10-03T23:52:29.426Z,10.40
2018-10-03T23:57:26.894Z,10.40
